sensor_id;sensor_type;location;lat;lon;timestamp;P1;durP1;ratioP1;P2;durP2;ratioP2
22705;SDS011;11520;51.198;4.468;2023-03-04T00:02:00;16.80;;;7.18;;
22705;SDS011;11520;51.198;4.468;2023-03-04T00:04:26;17.23;;;6.10;;
22705;SDS011;11520;51.198;4.468;2023-03-04T00:06:53;14.75;;;6.15;;
22705;SDS011;11520;51.198;4.468;2023-03-04T00:09:21;20.08;;;5.63;;
22705;SDS011;11520;51.198;4.468;2023-03-04T00:11:47;10.55;;;5.20;;
22705;SDS011;11520;51.198;4.468;2023-03-04T00:14:13;16.20;;;5.78;;
22705;SDS011;11520;51.198;4.468;2023-03-04T00:16:39;15.10;;;5.60;;
22705;SDS011;11520;51.198;4.468;2023-03-04T00:19:04;13.00;;;5.43;;
22705;SDS011;11520;51.198;4.468;2023-03-04T00:21:31;20.10;;;5.78;;
22705;SDS011;11520;51.198;4.468;2023-03-04T00:23:58;19.42;;;5.93;;
22705;SDS011;11520;51.198;4.468;2023-03-04T00:26:24;10.95;;;5.28;;
22705;SDS011;11520;51.198;4.468;2023-03-04T00:28:49;15.43;;;5.30;;
22705;SDS011;11520;51.198;4.468;2023-03-04T00:31:16;14.88;;;5.47;;
22705;SDS011;11520;51.198;4.468;2023-03-04T00:33:42;17.55;;;5.22;;
22705;SDS011;11520;51.198;4.468;2023-03-04T00:36:09;18.65;;;5.32;;
22705;SDS011;11520;51.198;4.468;2023-03-04T00:38:35;15.30;;;5.75;;
22705;SDS011;11520;51.198;4.468;2023-03-04T00:41:04;15.32;;;4.75;;
22705;SDS011;11520;51.198;4.468;2023-03-04T00:43:30;18.73;;;5.90;;
22705;SDS011;11520;51.198;4.468;2023-03-04T00:45:58;23.33;;;7.03;;
22705;SDS011;11520;51.198;4.468;2023-03-04T00:48:25;15.95;;;5.45;;
22705;SDS011;11520;51.198;4.468;2023-03-04T00:50:51;18.60;;;5.47;;
22705;SDS011;11520;51.198;4.468;2023-03-04T00:53:19;22.55;;;6.45;;
22705;SDS011;11520;51.198;4.468;2023-03-04T00:55:45;23.85;;;5.80;;
22705;SDS011;11520;51.198;4.468;2023-03-04T00:58:11;18.20;;;5.40;;
22705;SDS011;11520;51.198;4.468;2023-03-04T01:00:37;15.30;;;5.18;;
22705;SDS011;11520;51.198;4.468;2023-03-04T01:03:02;13.85;;;4.93;;
22705;SDS011;11520;51.198;4.468;2023-03-04T01:05:28;16.38;;;4.90;;
22705;SDS011;11520;51.198;4.468;2023-03-04T01:07:55;16.27;;;4.85;;
22705;SDS011;11520;51.198;4.468;2023-03-04T01:10:21;22.60;;;4.95;;
22705;SDS011;11520;51.198;4.468;2023-03-04T01:12:47;17.45;;;5.18;;
22705;SDS011;11520;51.198;4.468;2023-03-04T01:15:13;14.77;;;4.97;;
22705;SDS011;11520;51.198;4.468;2023-03-04T01:17:39;12.82;;;5.13;;
22705;SDS011;11520;51.198;4.468;2023-03-04T01:20:05;15.65;;;4.22;;
22705;SDS011;11520;51.198;4.468;2023-03-04T01:22:33;9.65;;;4.53;;
22705;SDS011;11520;51.198;4.468;2023-03-04T01:24:58;15.95;;;4.32;;
22705;SDS011;11520;51.198;4.468;2023-03-04T01:27:24;20.05;;;5.22;;
22705;SDS011;11520;51.198;4.468;2023-03-04T01:29:50;12.93;;;4.75;;
22705;SDS011;11520;51.198;4.468;2023-03-04T01:32:16;12.00;;;3.95;;
22705;SDS011;11520;51.198;4.468;2023-03-04T01:34:41;15.77;;;4.35;;
22705;SDS011;11520;51.198;4.468;2023-03-04T01:37:07;15.50;;;4.20;;
22705;SDS011;11520;51.198;4.468;2023-03-04T01:39:33;14.05;;;4.97;;
22705;SDS011;11520;51.198;4.468;2023-03-04T01:41:59;16.33;;;5.30;;
22705;SDS011;11520;51.198;4.468;2023-03-04T01:44:26;18.35;;;5.30;;
22705;SDS011;11520;51.198;4.468;2023-03-04T01:46:53;23.42;;;4.97;;
22705;SDS011;11520;51.198;4.468;2023-03-04T01:49:19;14.98;;;4.60;;
22705;SDS011;11520;51.198;4.468;2023-03-04T01:51:49;24.05;;;4.80;;
22705;SDS011;11520;51.198;4.468;2023-03-04T01:54:19;18.73;;;4.45;;
22705;SDS011;11520;51.198;4.468;2023-03-04T01:56:47;16.17;;;5.25;;
22705;SDS011;11520;51.198;4.468;2023-03-04T01:59:16;18.20;;;4.63;;
22705;SDS011;11520;51.198;4.468;2023-03-04T02:01:54;20.00;;;4.38;;
22705;SDS011;11520;51.198;4.468;2023-03-04T02:04:24;14.45;;;5.28;;
22705;SDS011;11520;51.198;4.468;2023-03-04T02:06:55;20.55;;;5.20;;
22705;SDS011;11520;51.198;4.468;2023-03-04T02:09:23;13.55;;;5.00;;
22705;SDS011;11520;51.198;4.468;2023-03-04T02:11:49;23.33;;;5.95;;
22705;SDS011;11520;51.198;4.468;2023-03-04T02:14:15;12.75;;;5.47;;
22705;SDS011;11520;51.198;4.468;2023-03-04T02:16:42;22.58;;;6.00;;
22705;SDS011;11520;51.198;4.468;2023-03-04T02:19:13;18.63;;;5.65;;
22705;SDS011;11520;51.198;4.468;2023-03-04T02:21:59;21.75;;;6.25;;
22705;SDS011;11520;51.198;4.468;2023-03-04T02:24:27;17.58;;;6.72;;
22705;SDS011;11520;51.198;4.468;2023-03-04T02:27:08;17.10;;;6.55;;
22705;SDS011;11520;51.198;4.468;2023-03-04T02:29:33;21.30;;;5.97;;
22705;SDS011;11520;51.198;4.468;2023-03-04T02:31:59;18.98;;;6.13;;
22705;SDS011;11520;51.198;4.468;2023-03-04T02:34:32;16.63;;;6.28;;
22705;SDS011;11520;51.198;4.468;2023-03-04T02:37:00;17.45;;;6.38;;
22705;SDS011;11520;51.198;4.468;2023-03-04T02:41:58;19.08;;;6.65;;
22705;SDS011;11520;51.198;4.468;2023-03-04T02:44:28;17.35;;;6.40;;
22705;SDS011;11520;51.198;4.468;2023-03-04T02:46:56;20.98;;;6.78;;
22705;SDS011;11520;51.198;4.468;2023-03-04T02:49:23;13.27;;;6.78;;
22705;SDS011;11520;51.198;4.468;2023-03-04T02:51:51;20.45;;;7.18;;
22705;SDS011;11520;51.198;4.468;2023-03-04T02:54:23;16.08;;;6.50;;
22705;SDS011;11520;51.198;4.468;2023-03-04T02:56:50;18.38;;;6.72;;
22705;SDS011;11520;51.198;4.468;2023-03-04T02:59:22;17.92;;;5.90;;
22705;SDS011;11520;51.198;4.468;2023-03-04T03:01:49;16.20;;;6.32;;
22705;SDS011;11520;51.198;4.468;2023-03-04T03:04:15;20.67;;;6.85;;
22705;SDS011;11520;51.198;4.468;2023-03-04T03:06:42;14.07;;;6.93;;
22705;SDS011;11520;51.198;4.468;2023-03-04T03:09:08;14.45;;;6.05;;
22705;SDS011;11520;51.198;4.468;2023-03-04T03:11:34;19.25;;;6.85;;
22705;SDS011;11520;51.198;4.468;2023-03-04T03:14:02;17.17;;;6.32;;
22705;SDS011;11520;51.198;4.468;2023-03-04T03:16:28;18.63;;;6.93;;
22705;SDS011;11520;51.198;4.468;2023-03-04T03:18:56;19.15;;;6.97;;
22705;SDS011;11520;51.198;4.468;2023-03-04T03:21:22;19.20;;;6.25;;
22705;SDS011;11520;51.198;4.468;2023-03-04T03:23:48;18.50;;;6.90;;
22705;SDS011;11520;51.198;4.468;2023-03-04T03:26:14;17.42;;;6.63;;
22705;SDS011;11520;51.198;4.468;2023-03-04T03:28:40;19.67;;;6.53;;
22705;SDS011;11520;51.198;4.468;2023-03-04T03:31:06;14.70;;;6.50;;
22705;SDS011;11520;51.198;4.468;2023-03-04T03:33:32;22.80;;;6.60;;
22705;SDS011;11520;51.198;4.468;2023-03-04T03:35:58;19.92;;;5.80;;
22705;SDS011;11520;51.198;4.468;2023-03-04T03:38:26;13.57;;;6.57;;
22705;SDS011;11520;51.198;4.468;2023-03-04T03:40:52;15.45;;;5.97;;
22705;SDS011;11520;51.198;4.468;2023-03-04T03:43:17;17.35;;;6.05;;
22705;SDS011;11520;51.198;4.468;2023-03-04T03:45:43;21.05;;;6.53;;
22705;SDS011;11520;51.198;4.468;2023-03-04T03:48:09;16.60;;;5.95;;
22705;SDS011;11520;51.198;4.468;2023-03-04T03:50:35;15.38;;;6.78;;
22705;SDS011;11520;51.198;4.468;2023-03-04T03:53:02;15.82;;;6.13;;
22705;SDS011;11520;51.198;4.468;2023-03-04T03:55:28;20.38;;;6.50;;
22705;SDS011;11520;51.198;4.468;2023-03-04T03:57:53;16.83;;;6.07;;
22705;SDS011;11520;51.198;4.468;2023-03-04T04:00:19;18.08;;;6.43;;
22705;SDS011;11520;51.198;4.468;2023-03-04T04:02:45;15.77;;;5.95;;
22705;SDS011;11520;51.198;4.468;2023-03-04T04:05:10;19.70;;;5.45;;
22705;SDS011;11520;51.198;4.468;2023-03-04T04:07:38;15.38;;;4.22;;
22705;SDS011;11520;51.198;4.468;2023-03-04T04:10:06;13.27;;;4.10;;
22705;SDS011;11520;51.198;4.468;2023-03-04T04:12:33;9.90;;;3.95;;
22705;SDS011;11520;51.198;4.468;2023-03-04T04:14:58;18.20;;;4.45;;
22705;SDS011;11520;51.198;4.468;2023-03-04T04:17:24;11.27;;;3.72;;
22705;SDS011;11520;51.198;4.468;2023-03-04T04:19:50;10.90;;;3.58;;
22705;SDS011;11520;51.198;4.468;2023-03-04T04:22:17;16.55;;;4.50;;
22705;SDS011;11520;51.198;4.468;2023-03-04T04:24:45;20.85;;;4.70;;
22705;SDS011;11520;51.198;4.468;2023-03-04T04:27:11;18.55;;;4.45;;
22705;SDS011;11520;51.198;4.468;2023-03-04T04:29:38;14.90;;;4.00;;
22705;SDS011;11520;51.198;4.468;2023-03-04T04:32:06;18.20;;;4.22;;
22705;SDS011;11520;51.198;4.468;2023-03-04T04:34:32;17.77;;;3.45;;
22705;SDS011;11520;51.198;4.468;2023-03-04T04:36:59;16.45;;;3.40;;
22705;SDS011;11520;51.198;4.468;2023-03-04T04:39:26;15.27;;;3.85;;
22705;SDS011;11520;51.198;4.468;2023-03-04T04:41:53;13.63;;;2.72;;
22705;SDS011;11520;51.198;4.468;2023-03-04T04:44:18;12.60;;;3.00;;
22705;SDS011;11520;51.198;4.468;2023-03-04T04:46:44;9.18;;;2.35;;
22705;SDS011;11520;51.198;4.468;2023-03-04T04:49:09;11.23;;;2.72;;
22705;SDS011;11520;51.198;4.468;2023-03-04T04:51:35;13.80;;;2.95;;
22705;SDS011;11520;51.198;4.468;2023-03-04T04:54:05;11.82;;;2.75;;
22705;SDS011;11520;51.198;4.468;2023-03-04T04:59:02;13.40;;;2.58;;
22705;SDS011;11520;51.198;4.468;2023-03-04T05:04:00;8.93;;;1.90;;
22705;SDS011;11520;51.198;4.468;2023-03-04T05:06:26;10.82;;;2.15;;
22705;SDS011;11520;51.198;4.468;2023-03-04T05:08:55;19.63;;;2.35;;
22705;SDS011;11520;51.198;4.468;2023-03-04T05:11:21;11.70;;;2.30;;
22705;SDS011;11520;51.198;4.468;2023-03-04T05:13:48;12.10;;;2.42;;
22705;SDS011;11520;51.198;4.468;2023-03-04T05:16:21;6.65;;;1.75;;
22705;SDS011;11520;51.198;4.468;2023-03-04T05:18:47;10.10;;;2.47;;
22705;SDS011;11520;51.198;4.468;2023-03-04T05:21:13;10.57;;;1.83;;
22705;SDS011;11520;51.198;4.468;2023-03-04T05:23:39;19.52;;;2.40;;
22705;SDS011;11520;51.198;4.468;2023-03-04T05:26:07;11.88;;;2.10;;
22705;SDS011;11520;51.198;4.468;2023-03-04T05:28:39;11.60;;;2.28;;
22705;SDS011;11520;51.198;4.468;2023-03-04T05:31:04;9.07;;;2.15;;
22705;SDS011;11520;51.198;4.468;2023-03-04T05:33:30;8.48;;;2.20;;
22705;SDS011;11520;51.198;4.468;2023-03-04T05:35:56;10.27;;;2.63;;
22705;SDS011;11520;51.198;4.468;2023-03-04T05:38:22;14.77;;;2.28;;
22705;SDS011;11520;51.198;4.468;2023-03-04T05:40:54;10.35;;;2.03;;
22705;SDS011;11520;51.198;4.468;2023-03-04T05:43:24;12.75;;;2.50;;
22705;SDS011;11520;51.198;4.468;2023-03-04T05:45:53;8.73;;;2.15;;
22705;SDS011;11520;51.198;4.468;2023-03-04T05:48:21;13.60;;;2.40;;
22705;SDS011;11520;51.198;4.468;2023-03-04T05:50:51;8.13;;;2.00;;
22705;SDS011;11520;51.198;4.468;2023-03-04T05:53:18;11.32;;;2.20;;
22705;SDS011;11520;51.198;4.468;2023-03-04T05:55:47;9.75;;;1.98;;
22705;SDS011;11520;51.198;4.468;2023-03-04T05:58:13;9.52;;;2.03;;
22705;SDS011;11520;51.198;4.468;2023-03-04T06:00:40;11.45;;;2.22;;
22705;SDS011;11520;51.198;4.468;2023-03-04T06:03:06;8.10;;;2.03;;
22705;SDS011;11520;51.198;4.468;2023-03-04T06:05:38;10.25;;;2.30;;
22705;SDS011;11520;51.198;4.468;2023-03-04T06:08:04;7.75;;;1.90;;
22705;SDS011;11520;51.198;4.468;2023-03-04T06:10:30;18.35;;;2.95;;
22705;SDS011;11520;51.198;4.468;2023-03-04T06:12:55;14.13;;;3.30;;
22705;SDS011;11520;51.198;4.468;2023-03-04T06:15:23;11.13;;;2.60;;
22705;SDS011;11520;51.198;4.468;2023-03-04T06:17:48;12.52;;;2.67;;
22705;SDS011;11520;51.198;4.468;2023-03-04T06:20:14;11.98;;;2.80;;
22705;SDS011;11520;51.198;4.468;2023-03-04T06:22:46;12.40;;;2.47;;
22705;SDS011;11520;51.198;4.468;2023-03-04T06:25:19;13.05;;;2.72;;
22705;SDS011;11520;51.198;4.468;2023-03-04T06:27:47;10.10;;;2.40;;
22705;SDS011;11520;51.198;4.468;2023-03-04T06:30:12;12.88;;;2.90;;
22705;SDS011;11520;51.198;4.468;2023-03-04T06:32:41;12.07;;;3.05;;
22705;SDS011;11520;51.198;4.468;2023-03-04T06:35:11;11.57;;;2.90;;
22705;SDS011;11520;51.198;4.468;2023-03-04T06:37:39;11.15;;;3.20;;
22705;SDS011;11520;51.198;4.468;2023-03-04T06:40:04;14.18;;;3.13;;
22705;SDS011;11520;51.198;4.468;2023-03-04T06:42:32;14.93;;;2.67;;
22705;SDS011;11520;51.198;4.468;2023-03-04T06:44:58;5.72;;;1.83;;
22705;SDS011;11520;51.198;4.468;2023-03-04T06:47:26;8.57;;;1.73;;
22705;SDS011;11520;51.198;4.468;2023-03-04T06:49:52;7.95;;;2.22;;
22705;SDS011;11520;51.198;4.468;2023-03-04T06:52:18;9.88;;;1.95;;
22705;SDS011;11520;51.198;4.468;2023-03-04T06:54:44;8.43;;;2.03;;
22705;SDS011;11520;51.198;4.468;2023-03-04T06:57:10;12.73;;;2.30;;
22705;SDS011;11520;51.198;4.468;2023-03-04T06:59:38;8.50;;;3.10;;
22705;SDS011;11520;51.198;4.468;2023-03-04T07:02:05;9.75;;;2.25;;
22705;SDS011;11520;51.198;4.468;2023-03-04T07:04:34;13.70;;;2.20;;
22705;SDS011;11520;51.198;4.468;2023-03-04T07:07:00;8.30;;;1.58;;
22705;SDS011;11520;51.198;4.468;2023-03-04T07:09:25;12.60;;;1.63;;
22705;SDS011;11520;51.198;4.468;2023-03-04T07:11:51;15.75;;;2.25;;
22705;SDS011;11520;51.198;4.468;2023-03-04T07:14:17;7.90;;;1.85;;
22705;SDS011;11520;51.198;4.468;2023-03-04T07:16:42;7.50;;;1.60;;
22705;SDS011;11520;51.198;4.468;2023-03-04T07:19:08;7.60;;;2.03;;
22705;SDS011;11520;51.198;4.468;2023-03-04T07:21:36;10.77;;;1.52;;
22705;SDS011;11520;51.198;4.468;2023-03-04T07:24:01;7.07;;;1.70;;
22705;SDS011;11520;51.198;4.468;2023-03-04T07:26:27;8.23;;;1.58;;
22705;SDS011;11520;51.198;4.468;2023-03-04T07:28:53;7.38;;;1.45;;
22705;SDS011;11520;51.198;4.468;2023-03-04T07:31:29;8.00;;;1.40;;
22705;SDS011;11520;51.198;4.468;2023-03-04T07:33:57;13.18;;;1.60;;
22705;SDS011;11520;51.198;4.468;2023-03-04T07:36:30;10.65;;;1.63;;
22705;SDS011;11520;51.198;4.468;2023-03-04T07:38:58;8.43;;;1.58;;
22705;SDS011;11520;51.198;4.468;2023-03-04T07:41:24;12.80;;;2.75;;
22705;SDS011;11520;51.198;4.468;2023-03-04T07:43:52;13.85;;;1.63;;
22705;SDS011;11520;51.198;4.468;2023-03-04T07:46:19;13.00;;;3.08;;
22705;SDS011;11520;51.198;4.468;2023-03-04T07:48:44;7.85;;;1.92;;
22705;SDS011;11520;51.198;4.468;2023-03-04T07:51:11;13.93;;;2.10;;
22705;SDS011;11520;51.198;4.468;2023-03-04T07:53:44;12.73;;;1.90;;
22705;SDS011;11520;51.198;4.468;2023-03-04T07:56:20;10.70;;;2.05;;
22705;SDS011;11520;51.198;4.468;2023-03-04T07:58:48;10.35;;;2.20;;
22705;SDS011;11520;51.198;4.468;2023-03-04T08:01:18;9.82;;;2.13;;
22705;SDS011;11520;51.198;4.468;2023-03-04T08:03:49;14.40;;;2.63;;
22705;SDS011;11520;51.198;4.468;2023-03-04T08:06:16;14.13;;;1.63;;
22705;SDS011;11520;51.198;4.468;2023-03-04T08:08:44;11.55;;;2.45;;
22705;SDS011;11520;51.198;4.468;2023-03-04T08:11:11;10.93;;;2.63;;
22705;SDS011;11520;51.198;4.468;2023-03-04T08:13:42;14.80;;;3.10;;
22705;SDS011;11520;51.198;4.468;2023-03-04T08:16:09;12.38;;;2.13;;
22705;SDS011;11520;51.198;4.468;2023-03-04T08:18:41;13.07;;;2.38;;
22705;SDS011;11520;51.198;4.468;2023-03-04T08:21:09;14.15;;;2.17;;
22705;SDS011;11520;51.198;4.468;2023-03-04T08:23:35;13.45;;;2.53;;
22705;SDS011;11520;51.198;4.468;2023-03-04T08:26:05;11.48;;;3.22;;
22705;SDS011;11520;51.198;4.468;2023-03-04T08:28:33;10.82;;;2.53;;
22705;SDS011;11520;51.198;4.468;2023-03-04T08:31:03;15.60;;;3.80;;
22705;SDS011;11520;51.198;4.468;2023-03-04T08:33:28;9.45;;;3.15;;
22705;SDS011;11520;51.198;4.468;2023-03-04T08:35:55;13.57;;;2.72;;
22705;SDS011;11520;51.198;4.468;2023-03-04T08:38:21;7.88;;;2.28;;
22705;SDS011;11520;51.198;4.468;2023-03-04T08:40:50;10.43;;;2.55;;
22705;SDS011;11520;51.198;4.468;2023-03-04T08:43:17;9.02;;;2.15;;
22705;SDS011;11520;51.198;4.468;2023-03-04T08:45:44;13.10;;;3.47;;
22705;SDS011;11520;51.198;4.468;2023-03-04T08:48:10;10.52;;;2.88;;
22705;SDS011;11520;51.198;4.468;2023-03-04T08:50:36;13.00;;;2.90;;
22705;SDS011;11520;51.198;4.468;2023-03-04T08:53:02;6.90;;;3.47;;
22705;SDS011;11520;51.198;4.468;2023-03-04T08:55:29;5.15;;;2.33;;
22705;SDS011;11520;51.198;4.468;2023-03-04T08:57:54;11.73;;;3.40;;
22705;SDS011;11520;51.198;4.468;2023-03-04T09:00:20;12.77;;;3.00;;
22705;SDS011;11520;51.198;4.468;2023-03-04T09:02:47;13.95;;;3.20;;
22705;SDS011;11520;51.198;4.468;2023-03-04T09:07:42;14.10;;;2.78;;
22705;SDS011;11520;51.198;4.468;2023-03-04T09:10:09;14.45;;;2.90;;
22705;SDS011;11520;51.198;4.468;2023-03-04T09:12:35;9.00;;;2.67;;
22705;SDS011;11520;51.198;4.468;2023-03-04T09:15:01;12.13;;;2.75;;
22705;SDS011;11520;51.198;4.468;2023-03-04T09:17:27;14.50;;;3.03;;
22705;SDS011;11520;51.198;4.468;2023-03-04T09:19:53;9.55;;;3.17;;
22705;SDS011;11520;51.198;4.468;2023-03-04T09:22:18;16.42;;;3.05;;
22705;SDS011;11520;51.198;4.468;2023-03-04T09:24:44;23.02;;;3.20;;
22705;SDS011;11520;51.198;4.468;2023-03-04T09:27:09;9.27;;;2.38;;
22705;SDS011;11520;51.198;4.468;2023-03-04T09:29:35;10.25;;;2.60;;
22705;SDS011;11520;51.198;4.468;2023-03-04T09:32:01;9.48;;;2.63;;
22705;SDS011;11520;51.198;4.468;2023-03-04T09:34:26;11.25;;;2.45;;
22705;SDS011;11520;51.198;4.468;2023-03-04T09:36:53;12.48;;;3.03;;
22705;SDS011;11520;51.198;4.468;2023-03-04T09:39:19;13.73;;;2.90;;
22705;SDS011;11520;51.198;4.468;2023-03-04T09:41:45;9.75;;;2.35;;
22705;SDS011;11520;51.198;4.468;2023-03-04T09:44:27;7.50;;;1.50;;
22705;SDS011;11520;51.198;4.468;2023-03-04T09:46:55;11.90;;;2.28;;
22705;SDS011;11520;51.198;4.468;2023-03-04T09:49:24;11.60;;;2.15;;
22705;SDS011;11520;51.198;4.468;2023-03-04T09:52:02;9.18;;;2.25;;
22705;SDS011;11520;51.198;4.468;2023-03-04T09:55:02;8.70;;;1.67;;
22705;SDS011;11520;51.198;4.468;2023-03-04T09:57:29;7.35;;;1.70;;
22705;SDS011;11520;51.198;4.468;2023-03-04T10:00:10;4.28;;;1.38;;
22705;SDS011;11520;51.198;4.468;2023-03-04T10:05:31;11.00;;;2.90;;
22705;SDS011;11520;51.198;4.468;2023-03-04T10:08:23;11.05;;;1.83;;
22705;SDS011;11520;51.198;4.468;2023-03-04T10:11:08;7.32;;;1.60;;
22705;SDS011;11520;51.198;4.468;2023-03-04T10:16:51;5.97;;;1.80;;
22705;SDS011;11520;51.198;4.468;2023-03-04T10:22:17;8.20;;;2.03;;
22705;SDS011;11520;51.198;4.468;2023-03-04T10:24:48;12.25;;;2.13;;
22705;SDS011;11520;51.198;4.468;2023-03-04T10:27:17;6.28;;;2.17;;
22705;SDS011;11520;51.198;4.468;2023-03-04T10:29:44;5.25;;;2.10;;
22705;SDS011;11520;51.198;4.468;2023-03-04T10:32:11;10.27;;;2.13;;
22705;SDS011;11520;51.198;4.468;2023-03-04T10:34:40;9.07;;;2.05;;
22705;SDS011;11520;51.198;4.468;2023-03-04T10:37:07;6.32;;;1.90;;
22705;SDS011;11520;51.198;4.468;2023-03-04T10:39:42;11.40;;;2.03;;
22705;SDS011;11520;51.198;4.468;2023-03-04T10:44:43;8.75;;;2.00;;
22705;SDS011;11520;51.198;4.468;2023-03-04T10:47:15;10.20;;;1.95;;
22705;SDS011;11520;51.198;4.468;2023-03-04T10:49:51;7.63;;;1.77;;
22705;SDS011;11520;51.198;4.468;2023-03-04T10:52:27;11.27;;;2.30;;
22705;SDS011;11520;51.198;4.468;2023-03-04T10:54:59;16.50;;;3.63;;
22705;SDS011;11520;51.198;4.468;2023-03-04T11:00:01;9.88;;;2.60;;
22705;SDS011;11520;51.198;4.468;2023-03-04T11:02:46;8.07;;;2.08;;
22705;SDS011;11520;51.198;4.468;2023-03-04T11:05:22;4.72;;;1.90;;
22705;SDS011;11520;51.198;4.468;2023-03-04T11:13:00;5.95;;;1.75;;
22705;SDS011;11520;51.198;4.468;2023-03-04T11:15:28;9.05;;;2.38;;
22705;SDS011;11520;51.198;4.468;2023-03-04T11:17:59;5.32;;;1.60;;
22705;SDS011;11520;51.198;4.468;2023-03-04T11:20:36;4.25;;;2.20;;
22705;SDS011;11520;51.198;4.468;2023-03-04T11:23:09;7.68;;;2.05;;
22705;SDS011;11520;51.198;4.468;2023-03-04T11:25:45;5.85;;;2.17;;
22705;SDS011;11520;51.198;4.468;2023-03-04T11:30:56;8.63;;;3.28;;
22705;SDS011;11520;51.198;4.468;2023-03-04T11:33:39;10.95;;;3.05;;
22705;SDS011;11520;51.198;4.468;2023-03-04T11:36:19;5.95;;;2.10;;
22705;SDS011;11520;51.198;4.468;2023-03-04T11:38:52;8.23;;;2.85;;
22705;SDS011;11520;51.198;4.468;2023-03-04T11:41:29;6.72;;;1.60;;
22705;SDS011;11520;51.198;4.468;2023-03-04T11:44:00;3.70;;;2.17;;
22705;SDS011;11520;51.198;4.468;2023-03-04T11:49:42;2.97;;;1.73;;
22705;SDS011;11520;51.198;4.468;2023-03-04T12:00:50;5.35;;;2.35;;
22705;SDS011;11520;51.198;4.468;2023-03-04T12:03:39;3.78;;;1.85;;
22705;SDS011;11520;51.198;4.468;2023-03-04T12:08:47;6.63;;;1.70;;
22705;SDS011;11520;51.198;4.468;2023-03-04T12:17:27;2.97;;;1.50;;
22705;SDS011;11520;51.198;4.468;2023-03-04T12:28:09;3.35;;;1.60;;
22705;SDS011;11520;51.198;4.468;2023-03-04T12:41:55;2.47;;;1.30;;
22705;SDS011;11520;51.198;4.468;2023-03-04T12:45:33;4.82;;;1.60;;
22705;SDS011;11520;51.198;4.468;2023-03-04T12:50:23;4.00;;;1.60;;
22705;SDS011;11520;51.198;4.468;2023-03-04T12:55:56;5.70;;;1.50;;
22705;SDS011;11520;51.198;4.468;2023-03-04T12:58:32;5.57;;;1.83;;
22705;SDS011;11520;51.198;4.468;2023-03-04T13:04:22;7.32;;;2.47;;
22705;SDS011;11520;51.198;4.468;2023-03-04T13:07:16;12.55;;;4.40;;
22705;SDS011;11520;51.198;4.468;2023-03-04T13:10:09;5.05;;;2.83;;
22705;SDS011;11520;51.198;4.468;2023-03-04T13:15:17;4.47;;;2.42;;
22705;SDS011;11520;51.198;4.468;2023-03-04T13:17:54;6.40;;;3.20;;
22705;SDS011;11520;51.198;4.468;2023-03-04T13:22:58;5.85;;;3.63;;
22705;SDS011;11520;51.198;4.468;2023-03-04T13:38:31;5.15;;;2.10;;
22705;SDS011;11520;51.198;4.468;2023-03-04T13:51:24;3.90;;;2.10;;
22705;SDS011;11520;51.198;4.468;2023-03-04T13:56:40;2.42;;;1.90;;
22705;SDS011;11520;51.198;4.468;2023-03-04T14:02:11;3.55;;;1.70;;
22705;SDS011;11520;51.198;4.468;2023-03-04T14:07:20;8.02;;;2.00;;
22705;SDS011;11520;51.198;4.468;2023-03-04T14:09:53;1.90;;;1.23;;
22705;SDS011;11520;51.198;4.468;2023-03-04T14:12:24;4.88;;;1.10;;
22705;SDS011;11520;51.198;4.468;2023-03-04T14:14:55;3.15;;;1.23;;
22705;SDS011;11520;51.198;4.468;2023-03-04T14:19:43;5.43;;;1.40;;
22705;SDS011;11520;51.198;4.468;2023-03-04T14:25:46;5.82;;;1.35;;
22705;SDS011;11520;51.198;4.468;2023-03-04T14:27:46;3.88;;;1.20;;
22705;SDS011;11520;51.198;4.468;2023-03-04T14:32:48;6.32;;;1.23;;
22705;SDS011;11520;51.198;4.468;2023-03-04T14:35:29;3.67;;;1.27;;
22705;SDS011;11520;51.198;4.468;2023-03-04T14:40:50;4.22;;;1.45;;
22705;SDS011;11520;51.198;4.468;2023-03-04T14:43:20;5.43;;;1.63;;
22705;SDS011;11520;51.198;4.468;2023-03-04T14:45:51;9.35;;;2.40;;
22705;SDS011;11520;51.198;4.468;2023-03-04T14:48:20;6.72;;;1.85;;
22705;SDS011;11520;51.198;4.468;2023-03-04T14:50:50;3.08;;;1.50;;
22705;SDS011;11520;51.198;4.468;2023-03-04T14:53:18;2.67;;;1.98;;
22705;SDS011;11520;51.198;4.468;2023-03-04T14:56:05;3.35;;;1.73;;
22705;SDS011;11520;51.198;4.468;2023-03-04T14:58:36;4.63;;;2.22;;
22705;SDS011;11520;51.198;4.468;2023-03-04T15:01:16;5.28;;;2.40;;
22705;SDS011;11520;51.198;4.468;2023-03-04T15:03:52;3.42;;;2.70;;
22705;SDS011;11520;51.198;4.468;2023-03-04T15:06:23;8.55;;;2.28;;
22705;SDS011;11520;51.198;4.468;2023-03-04T15:08:57;4.22;;;2.08;;
22705;SDS011;11520;51.198;4.468;2023-03-04T15:11:50;11.52;;;2.58;;
22705;SDS011;11520;51.198;4.468;2023-03-04T15:27:44;3.28;;;1.48;;
22705;SDS011;11520;51.198;4.468;2023-03-04T15:30:19;6.53;;;1.63;;
22705;SDS011;11520;51.198;4.468;2023-03-04T15:32:55;3.22;;;1.30;;
22705;SDS011;11520;51.198;4.468;2023-03-04T15:43:14;8.75;;;1.80;;
22705;SDS011;11520;51.198;4.468;2023-03-04T15:45:48;4.25;;;1.42;;
22705;SDS011;11520;51.198;4.468;2023-03-04T15:48:20;7.47;;;3.03;;
22705;SDS011;11520;51.198;4.468;2023-03-04T15:56:23;4.88;;;2.08;;
22705;SDS011;11520;51.198;4.468;2023-03-04T15:58:59;9.27;;;2.60;;
22705;SDS011;11520;51.198;4.468;2023-03-04T16:04:33;6.35;;;2.05;;
22705;SDS011;11520;51.198;4.468;2023-03-04T16:07:00;8.68;;;1.85;;
22705;SDS011;11520;51.198;4.468;2023-03-04T16:09:25;3.92;;;1.40;;
22705;SDS011;11520;51.198;4.468;2023-03-04T16:11:51;5.25;;;2.00;;
22705;SDS011;11520;51.198;4.468;2023-03-04T16:14:20;3.42;;;1.83;;
22705;SDS011;11520;51.198;4.468;2023-03-04T16:16:46;3.42;;;2.20;;
22705;SDS011;11520;51.198;4.468;2023-03-04T16:19:13;4.20;;;2.50;;
22705;SDS011;11520;51.198;4.468;2023-03-04T16:21:38;6.57;;;2.78;;
22705;SDS011;11520;51.198;4.468;2023-03-04T16:24:05;5.75;;;2.67;;
22705;SDS011;11520;51.198;4.468;2023-03-04T16:26:37;11.48;;;2.75;;
22705;SDS011;11520;51.198;4.468;2023-03-04T16:29:02;6.00;;;2.72;;
22705;SDS011;11520;51.198;4.468;2023-03-04T16:31:28;3.13;;;2.00;;
22705;SDS011;11520;51.198;4.468;2023-03-04T16:33:54;4.32;;;2.38;;
22705;SDS011;11520;51.198;4.468;2023-03-04T16:36:21;3.85;;;1.70;;
22705;SDS011;11520;51.198;4.468;2023-03-04T16:38:50;2.58;;;1.42;;
22705;SDS011;11520;51.198;4.468;2023-03-04T16:41:19;2.05;;;1.33;;
22705;SDS011;11520;51.198;4.468;2023-03-04T16:43:49;3.60;;;1.35;;
22705;SDS011;11520;51.198;4.468;2023-03-04T16:46:14;2.85;;;1.40;;
22705;SDS011;11520;51.198;4.468;2023-03-04T16:48:40;4.40;;;1.85;;
22705;SDS011;11520;51.198;4.468;2023-03-04T16:51:11;5.68;;;1.65;;
22705;SDS011;11520;51.198;4.468;2023-03-04T16:53:41;2.40;;;1.70;;
22705;SDS011;11520;51.198;4.468;2023-03-04T16:56:12;9.45;;;2.53;;
22705;SDS011;11520;51.198;4.468;2023-03-04T16:58:40;5.13;;;2.67;;
22705;SDS011;11520;51.198;4.468;2023-03-04T17:01:18;8.57;;;2.40;;
22705;SDS011;11520;51.198;4.468;2023-03-04T17:03:51;6.47;;;2.72;;
22705;SDS011;11520;51.198;4.468;2023-03-04T17:08:47;8.65;;;2.00;;
22705;SDS011;11520;51.198;4.468;2023-03-04T17:11:15;8.35;;;2.33;;
22705;SDS011;11520;51.198;4.468;2023-03-04T17:13:43;9.02;;;4.07;;
22705;SDS011;11520;51.198;4.468;2023-03-04T17:16:10;6.25;;;3.17;;
22705;SDS011;11520;51.198;4.468;2023-03-04T17:18:36;10.30;;;3.38;;
22705;SDS011;11520;51.198;4.468;2023-03-04T17:21:08;13.68;;;3.58;;
22705;SDS011;11520;51.198;4.468;2023-03-04T17:23:36;11.80;;;5.60;;
22705;SDS011;11520;51.198;4.468;2023-03-04T17:26:02;19.67;;;9.75;;
22705;SDS011;11520;51.198;4.468;2023-03-04T17:28:28;10.50;;;4.55;;
22705;SDS011;11520;51.198;4.468;2023-03-04T17:30:58;8.65;;;3.45;;
22705;SDS011;11520;51.198;4.468;2023-03-04T17:33:32;13.15;;;3.33;;